Time;durP1;ratioP1;P1;durP2;ratioP2;P2;SDS_P1;SDS_P2;PMS_P1;PMS_P2;Temp;Humidity;BMP_temperature;BMP_pressure;BME280_temperature;BME280_humidity;BME280_pressure;Samples;Min_cycle;Max_cycle;Signal;HPM_P1;HPM_P2
2022/11/03 00:02:01;;;;;;;19.90;11.00;;;;;;;10.52;87.06;99083.95;102026;1301;76462;-24
2022/11/03 00:04:29;;;;;;;17.30;10.30;;;;;;;10.47;87.79;99085.34;102135;1295;76739;-24
2022/11/03 00:08:02;;;;;;;18.30;12.20;;;;;;;10.97;85.55;99091.05;99248;1336;599990;-23
2022/11/03 00:10:30;;;;;;;20.50;12.00;;;;;;;10.66;86.50;99085.92;101365;1304;61613;-23
2022/11/03 00:12:57;;;;;;;20.80;14.00;;;;;;;10.58;86.89;99086.91;101315;1312;62855;-23
2022/11/03 00:15:24;;;;;;;15.20;9.40;;;;;;;10.40;87.97;99089.02;101333;1304;74939;-23
2022/11/03 00:17:51;;;;;;;18.50;12.40;;;;;;;10.57;87.56;99091.13;101622;1307;76708;-23
2022/11/03 00:20:18;;;;;;;18.20;10.80;;;;;;;10.84;86.32;99091.41;101628;1308;75011;-23
2022/11/03 00:22:45;;;;;;;19.10;10.80;;;;;;;10.79;86.03;99095.97;100998;1299;1151087;-22
2022/11/03 00:25:12;;;;;;;25.50;13.20;;;;;;;10.63;86.51;99097.26;101813;1304;62869;-23
2022/11/03 00:27:39;;;;;;;17.70;10.20;;;;;;;10.49;87.55;99098.88;101730;1300;74507;-23
2022/11/03 00:30:07;;;;;;;17.50;10.10;;;;;;;10.81;86.15;99102.42;101600;1307;76683;-24
2022/11/03 00:32:34;;;;;;;19.00;11.30;;;;;;;10.95;85.04;99104.09;101494;1304;74378;-23
2022/11/03 00:35:01;;;;;;;19.40;11.60;;;;;;;10.88;85.29;99108.15;101741;1306;63022;-24
2022/11/03 00:37:28;;;;;;;19.10;11.50;;;;;;;10.55;86.21;99103.11;101761;1304;62177;-24
2022/11/03 00:39:55;;;;;;;15.10;9.80;;;;;;;10.39;87.32;99105.97;101675;1308;75689;-24
2022/11/03 00:42:22;;;;;;;16.60;11.20;;;;;;;10.46;87.32;99105.91;101555;1307;76743;-24
2022/11/03 00:44:49;;;;;;;17.30;11.10;;;;;;;10.53;86.61;99108.81;101593;1304;75075;-24
2022/11/03 00:47:16;;;;;;;19.00;11.10;;;;;;;10.79;85.69;99109.52;101661;1306;61652;-24
2022/11/03 00:49:50;;;;;;;17.80;10.80;;;;;;;10.64;85.70;99108.69;101752;1306;61965;-24
2022/11/03 00:52:17;;;;;;;19.90;11.20;;;;;;;10.40;86.87;99112.77;101750;1308;75631;-24
2022/11/03 00:54:44;;;;;;;18.10;10.00;;;;;;;10.31;87.84;99108.30;101764;1308;76670;-23
2022/11/03 00:57:11;;;;;;;20.40;11.40;;;;;;;10.62;86.41;99105.00;101753;1307;74471;-23
2022/11/03 00:59:38;;;;;;;17.90;11.40;;;;;;;10.57;86.28;99108.48;101635;1307;62606;-24
2022/11/03 01:02:05;;;;;;;17.70;11.50;;;;;;;10.54;86.51;99102.87;101766;1308;63345;-24
2022/11/03 01:07:19;;;;;;;21.30;9.90;;;;;;;10.56;86.77;99103.23;101525;1304;76492;-24
2022/11/03 01:09:46;;;;;;;21.80;11.90;;;;;;;10.83;85.12;99104.31;101753;1304;74217;-23
2022/11/03 01:12:17;;;;;;;18.70;10.60;;;;;;;10.76;85.03;99109.08;101749;1307;62602;-23
2022/11/03 01:14:46;;;;;;;19.20;10.30;;;;;;;10.70;85.17;99104.55;101501;1311;62938;-24
2022/11/03 01:17:17;;;;;;;15.60;9.30;;;;;;;10.50;85.82;99110.78;101531;1309;75373;-24
2022/11/03 01:19:45;;;;;;;15.30;8.90;;;;;;;10.74;85.21;99108.01;101481;1304;76682;-24
2022/11/03 01:22:12;;;;;;;19.70;10.20;;;;;;;10.88;84.52;99103.21;101624;1309;75244;-25
2022/11/03 01:24:40;;;;;;;19.00;11.40;;;;;;;10.93;83.57;99105.30;101793;1305;62924;-23
2022/11/03 01:27:12;;;;;;;17.50;11.10;;;;;;;10.60;84.63;99098.52;101518;1307;62628;-23
2022/11/03 01:29:40;;;;;;;15.00;8.80;;;;;;;10.39;85.64;99104.20;101517;1311;75340;-22
2022/11/03 01:32:07;;;;;;;15.20;9.40;;;;;;;10.64;84.76;99100.98;101438;1303;76690;-23
2022/11/03 01:34:35;;;;;;;15.90;10.10;;;;;;;10.94;83.08;99103.14;101509;1307;74216;-23
2022/11/03 01:37:02;;;;;;;16.10;9.70;;;;;;;10.84;82.80;99101.48;101780;1308;63059;-23
2022/11/03 01:39:29;;;;;;;16.20;9.70;;;;;;;10.69;83.28;99103.70;101733;1309;62996;-23
2022/11/03 01:41:56;;;;;;;13.20;8.50;;;;;;;10.43;84.10;99103.52;101957;1301;74556;-22
2022/11/03 01:44:28;;;;;;;21.20;9.00;;;;;;;10.46;84.70;99105.23;102064;1302;76806;-22
2022/11/03 01:47:01;;;;;;;16.30;10.30;;;;;;;10.63;83.70;99109.59;101830;1299;75045;-22
2022/11/03 01:49:37;;;;;;;16.60;8.50;;;;;;;10.75;82.73;99107.95;101848;1300;63121;-23
2022/11/03 01:52:15;;;;;;;16.60;10.20;;;;;;;10.61;83.02;99106.50;101832;1305;62878;-22
2022/11/03 01:54:43;;;;;;;11.70;7.90;;;;;;;10.35;84.02;99098.25;101884;1297;75502;-23
2022/11/03 01:57:16;;;;;;;14.70;8.60;;;;;;;10.48;83.99;99096.52;101907;1305;76730;-24
2022/11/03 01:59:43;;;;;;;15.20;8.50;;;;;;;10.73;82.72;99100.84;101874;1304;74524;-22
2022/11/03 02:02:10;;;;;;;17.20;10.40;;;;;;;10.70;82.51;99104.20;101832;1305;62932;-23
2022/11/03 02:04:38;;;;;;;17.80;10.10;;;;;;;10.49;83.35;99104.79;101952;1302;62945;-23
2022/11/03 02:07:31;;;;;;;13.70;8.20;;;;;;;10.31;84.20;99106.02;101963;1305;75654;-25
2022/11/03 02:09:58;;;;;;;13.80;7.40;;;;;;;10.53;83.96;99112.48;101866;1302;76719;-26
2022/11/03 02:12:26;;;;;;;14.90;8.30;;;;;;;10.85;82.50;99112.56;101894;1297;74302;-27
2022/11/03 02:15:08;;;;;;;12.60;8.80;;;;;;;10.82;82.27;99106.20;101893;1303;62649;-27
2022/11/03 02:17:36;;;;;;;15.90;9.70;;;;;;;10.69;82.29;99108.95;101918;1298;62851;-25
2022/11/03 02:20:11;;;;;;;9.60;5.90;;;;;;;10.50;83.48;99108.19;101858;1303;75535;-24
2022/11/03 02:22:53;;;;;;;16.70;8.20;;;;;;;10.80;82.74;99103.35;101896;1304;76194;-26
2022/11/03 02:25:32;;;;;;;16.10;9.20;;;;;;;11.08;81.72;99104.74;101859;1305;75308;-24
2022/11/03 02:27:59;;;;;;;16.50;9.10;;;;;;;10.97;81.72;99103.09;101887;1304;62460;-23
2022/11/03 02:30:27;;;;;;;17.90;10.00;;;;;;;10.70;82.74;99100.03;101856;1302;61550;-23
2022/11/03 02:33:05;;;;;;;15.30;7.80;;;;;;;10.44;84.00;99107.14;101834;1299;75552;-23
2022/11/03 02:35:47;;;;;;;16.80;10.50;;;;;;;10.51;84.41;99104.13;101758;1307;76830;-24
2022/11/03 02:38:15;;;;;;;19.20;11.00;;;;;;;10.72;83.28;99102.81;101797;1306;74929;-23
2022/11/03 02:40:45;;;;;;;20.50;11.80;;;;;;;10.57;83.59;99106.63;101819;1303;63323;-24
2022/11/03 02:43:13;;;;;;;18.60;12.10;;;;;;;10.42;84.30;99113.34;101850;1302;62061;-23
2022/11/03 02:45:40;;;;;;;15.30;10.00;;;;;;;10.21;85.54;99112.73;101866;1291;75792;-24
2022/11/03 02:48:07;;;;;;;23.60;13.60;;;;;;;10.30;85.28;99105.10;101880;1303;76763;-23
2022/11/03 02:50:34;;;;;;;18.10;10.00;;;;;;;10.46;84.30;99104.32;101816;1305;74960;-24
2022/11/03 02:53:01;;;;;;;18.90;11.00;;;;;;;10.46;83.61;99107.63;101803;1305;61186;-23
2022/11/03 02:55:41;;;;;;;23.10;12.90;;;;;;;10.28;84.41;99106.14;101983;1302;63028;-23
2022/11/03 02:58:26;;;;;;;17.90;9.70;;;;;;;10.05;85.62;99101.29;101860;1303;75497;-24
2022/11/03 03:01:27;;;;;;;19.50;11.10;;;;;;;10.38;84.26;99099.38;101884;1301;76469;-23
2022/11/03 03:04:00;;;;;;;24.30;11.90;;;;;;;10.55;82.98;99098.27;101962;1300;74455;-23
2022/11/03 03:06:38;;;;;;;20.30;12.50;;;;;;;10.39;83.48;99104.91;101811;1302;62904;-23
2022/11/03 03:09:07;;;;;;;14.20;9.60;;;;;;;10.13;85.20;99107.83;101847;1304;61737;-23
2022/11/03 03:11:36;;;;;;;19.80;11.70;;;;;;;10.10;85.36;99098.31;101810;1304;75570;-23
2022/11/03 03:14:11;;;;;;;22.50;12.80;;;;;;;10.50;83.55;99089.96;101778;1298;75427;-23
2022/11/03 03:16:59;;;;;;;20.30;12.50;;;;;;;10.51;83.02;99090.63;101895;1305;75226;-24
2022/11/03 03:19:51;;;;;;;23.20;13.10;;;;;;;10.32;84.05;99087.86;101874;1305;61845;-23
2022/11/03 03:22:23;;;;;;;21.10;11.00;;;;;;;9.97;85.49;99084.41;101887;1305;62906;-23
2022/11/03 03:24:58;;;;;;;16.50;9.40;;;;;;;9.94;86.28;99077.55;101880;1297;74215;-24
2022/11/03 03:27:27;;;;;;;19.90;12.00;;;;;;;10.41;83.93;99074.92;101890;1305;76494;-25
2022/11/03 03:30:00;;;;;;;22.50;12.20;;;;;;;10.51;83.11;99082.45;101837;1299;74026;-22
2022/11/03 03:32:27;;;;;;;18.40;12.90;;;;;;;10.34;83.46;99091.60;101764;1305;62823;-23
2022/11/03 03:34:54;;;;;;;20.50;11.80;;;;;;;10.20;84.03;99087.31;101922;1301;61600;-23
2022/11/03 03:37:22;;;;;;;17.10;10.10;;;;;;;9.91;85.22;99086.92;101558;1303;75273;-23
2022/11/03 03:39:51;;;;;;;16.30;9.80;;;;;;;10.31;83.85;99081.21;101893;1302;74937;-24
2022/11/03 03:42:19;;;;;;;19.90;10.60;;;;;;;10.58;81.69;99075.64;101893;1297;75299;-23
2022/11/03 03:44:46;;;;;;;16.80;10.80;;;;;;;10.47;81.31;99077.36;101790;1304;61153;-23
2022/11/03 03:47:29;;;;;;;17.70;11.30;;;;;;;10.18;81.96;99083.94;101922;1302;61653;-23
2022/11/03 03:49:56;;;;;;;19.30;11.30;;;;;;;9.81;83.78;99078.33;101873;1305;75570;-23
2022/11/03 03:52:23;;;;;;;14.60;9.20;;;;;;;9.58;84.83;99075.98;101978;1302;76767;-23
2022/11/03 03:54:51;;;;;;;21.50;12.30;;;;;;;9.89;84.39;99071.51;101744;1307;75294;-23
2022/11/03 03:57:20;;;;;;;20.30;12.00;;;;;;;10.15;82.92;99069.98;101828;1299;61827;-23
2022/11/03 03:59:47;;;;;;;19.30;10.40;;;;;;;9.93;83.95;99065.42;101858;1305;62421;-23
2022/11/03 04:02:14;;;;;;;21.90;12.50;;;;;;;9.84;84.27;99071.87;101876;1305;75576;-23
2022/11/03 04:04:41;;;;;;;18.10;10.30;;;;;;;9.65;85.29;99073.70;102006;1302;75404;-23
2022/11/03 04:09:54;;;;;;;22.50;11.40;;;;;;;10.13;83.58;99064.09;101852;1302;63039;-23
2022/11/03 04:23:28;;;;;;;15.30;10.40;;;;;;;9.94;84.46;99064.73;101870;1305;62614;-23
2022/11/03 04:25:56;;;;;;;20.30;12.10;;;;;;;10.01;83.79;99067.13;101916;1301;61944;-23
2022/11/03 04:28:23;;;;;;;19.10;11.20;;;;;;;9.62;86.11;99067.86;101834;1311;75343;-23
2022/11/03 04:30:50;;;;;;;22.20;13.70;;;;;;;9.41;87.37;99067.85;101899;1297;75955;-23
2022/11/03 04:33:23;;;;;;;19.60;11.80;;;;;;;9.34;88.20;99071.85;101918;1294;73142;-23
2022/11/03 04:35:50;;;;;;;23.30;13.00;;;;;;;9.82;86.29;99069.77;102062;1301;62936;-23
2022/11/03 04:38:21;;;;;;;26.40;12.60;;;;;;;10.01;84.91;99072.66;101902;1304;62742;-23
2022/11/03 04:40:51;;;;;;;25.50;14.10;;;;;;;9.80;85.53;99068.04;101901;1305;76373;-23
2022/11/03 04:43:23;;;;;;;14.40;9.40;;;;;;;9.55;87.27;99069.94;101835;1298;75735;-23
2022/11/03 04:45:50;;;;;;;23.20;12.70;;;;;;;9.71;87.15;99077.08;101912;1305;74964;-23
2022/11/03 04:48:20;;;;;;;21.20;12.10;;;;;;;9.91;86.03;99081.73;101934;1303;61962;-23
2022/11/03 04:50:48;;;;;;;24.30;14.00;;;;;;;9.83;86.28;99082.52;101732;1307;61573;-23
2022/11/03 04:53:16;;;;;;;16.00;10.80;;;;;;;9.70;87.10;99082.48;101843;1297;76331;-23
2022/11/03 04:55:44;;;;;;;21.20;14.00;;;;;;;9.50;87.81;99089.02;101638;1308;75450;-23
2022/11/03 04:58:25;;;;;;;17.30;10.90;;;;;;;9.78;87.16;99080.15;101871;1300;73327;-23
2022/11/03 05:00:53;;;;;;;23.30;14.30;;;;;;;9.92;86.09;99085.66;101724;1305;61575;-23
2022/11/03 05:03:33;;;;;;;23.40;15.70;;;;;;;9.75;86.91;99087.96;101801;1305;61439;-23
2022/11/03 05:06:20;;;;;;;28.60;14.90;;;;;;;9.55;87.61;99085.37;101845;1307;76467;-23
2022/11/03 05:08:49;;;;;;;20.40;12.30;;;;;;;9.44;88.70;99101.93;101849;1297;76775;-23
2022/11/03 05:11:38;;;;;;;27.30;15.50;;;;;;;9.88;86.78;99098.09;101874;1297;75211;-23
2022/11/03 05:14:31;;;;;;;24.30;14.30;;;;;;;9.83;86.17;99091.90;101956;1306;62783;-23
2022/11/03 05:16:58;;;;;;;32.90;16.90;;;;;;;9.54;87.57;99098.95;101941;1302;62983;-23
2022/11/03 05:19:33;;;;;;;23.80;13.10;;;;;;;9.53;87.49;99093.45;102060;1301;76418;-23
2022/11/03 05:22:01;;;;;;;19.90;10.60;;;;;;;9.71;86.14;99095.73;101842;1307;76081;-26
2022/11/03 05:24:28;;;;;;;20.60;14.30;;;;;;;9.65;86.19;99098.64;101851;1305;75241;-26
2022/11/03 05:26:57;;;;;;;25.80;13.10;;;;;;;9.61;86.46;99107.98;101966;1301;61205;-26
2022/11/03 05:29:35;;;;;;;19.90;13.80;;;;;;;9.42;87.08;99114.23;101892;1304;63042;-26
2022/11/03 05:32:02;;;;;;;23.10;11.70;;;;;;;9.49;86.77;99102.08;101870;1304;75327;-24
2022/11/03 05:34:29;;;;;;;19.80;13.80;;;;;;;9.70;85.67;99109.86;101972;1303;76739;-26
2022/11/03 05:37:03;;;;;;;22.60;13.40;;;;;;;9.67;85.72;99119.48;101991;1302;74131;-26
2022/11/03 05:39:40;;;;;;;24.30;15.30;;;;;;;9.50;85.88;99121.92;101899;1302;62768;-25
2022/11/03 05:42:24;;;;;;;30.40;15.50;;;;;;;9.52;86.06;99124.05;101867;1305;62472;-24
2022/11/03 05:44:51;;;;;;;27.80;14.70;;;;;;;9.91;84.86;99134.13;101893;1299;75412;-25
2022/11/03 05:47:23;;;;;;;23.00;14.90;;;;;;;9.84;84.58;99131.67;101972;1305;76798;-24
2022/11/03 05:49:55;;;;;;;29.80;14.60;;;;;;;9.55;85.79;99137.02;101817;1304;75286;-25
2022/11/03 05:52:24;;;;;;;22.20;14.50;;;;;;;9.57;85.78;99140.30;101897;1303;62904;-25
2022/11/03 05:54:53;;;;;;;24.00;12.80;;;;;;;9.67;86.12;99143.40;101901;1288;63341;-25
2022/11/03 05:57:20;;;;;;;18.80;12.10;;;;;;;9.96;84.09;99147.79;101644;1301;76427;-26
2022/11/03 05:59:48;;;;;;;18.10;10.60;;;;;;;9.96;83.52;99141.34;101895;1305;76821;-23
2022/11/03 06:02:38;;;;;;;21.80;13.30;;;;;;;9.76;84.15;99146.55;101742;1306;75533;-25
2022/11/03 06:05:19;;;;;;;17.80;12.40;;;;;;;9.59;85.12;99152.98;102090;1302;63358;-25
2022/11/03 06:07:46;;;;;;;20.60;13.20;;;;;;;9.95;84.18;99154.83;101850;1302;61730;-25
2022/11/03 06:10:21;;;;;;;24.30;15.30;;;;;;;10.10;82.98;99153.31;101895;1305;75025;-24
2022/11/03 06:12:48;;;;;;;20.60;13.30;;;;;;;9.94;83.46;99143.75;101848;1296;75703;-25
2022/11/03 06:15:32;;;;;;;17.90;12.60;;;;;;;9.77;83.68;99150.80;102058;1301;75078;-24
2022/11/03 06:18:01;;;;;;;21.10;14.30;;;;;;;9.62;84.25;99158.48;101878;1305;64273;-23
2022/11/03 06:20:28;;;;;;;19.70;12.50;;;;;;;9.80;83.68;99151.96;101813;1303;62839;-24
2022/11/03 06:22:55;;;;;;;20.30;12.60;;;;;;;10.08;81.85;99155.39;102106;1302;75367;-23
2022/11/03 06:25:26;;;;;;;20.10;13.90;;;;;;;10.02;81.71;99154.23;102078;1302;76688;-24
2022/11/03 06:27:54;;;;;;;28.30;16.10;;;;;;;9.77;82.68;99155.14;101858;1304;75183;-23
2022/11/03 06:30:30;;;;;;;22.70;11.50;;;;;;;9.61;83.15;99156.52;101909;1305;64582;-24
2022/11/03 06:32:59;;;;;;;20.30;11.50;;;;;;;9.73;82.90;99145.35;101891;1305;61746;-24
2022/11/03 06:35:26;;;;;;;21.10;13.30;;;;;;;10.00;81.71;99147.64;101905;1305;75684;-25
2022/11/03 06:37:55;;;;;;;22.20;13.40;;;;;;;9.97;81.29;99148.23;101948;1302;76738;-24
2022/11/03 06:40:23;;;;;;;18.10;13.20;;;;;;;9.65;82.09;99152.73;101935;1305;75247;-25
2022/11/03 06:42:53;;;;;;;18.20;11.60;;;;;;;9.48;83.40;99150.70;101975;1302;61187;-25
2022/11/03 06:45:24;;;;;;;16.20;9.90;;;;;;;9.68;82.10;99152.48;101956;1305;62883;-25
2022/11/03 06:47:52;;;;;;;18.60;11.50;;;;;;;10.08;80.98;99151.16;101904;1302;76691;-25
2022/11/03 06:50:31;;;;;;;19.30;12.70;;;;;;;10.05;80.90;99145.52;102014;1296;76672;-25
2022/11/03 06:53:02;;;;;;;22.10;13.00;;;;;;;9.82;81.46;99145.37;101981;1302;74707;-24
2022/11/03 06:55:30;;;;;;;15.30;10.10;;;;;;;9.76;81.73;99151.71;101859;1300;61923;-25
2022/11/03 06:58:01;;;;;;;20.00;11.70;;;;;;;9.67;82.63;99145.16;102201;1297;62944;-25
2022/11/03 07:00:29;;;;;;;20.10;12.40;;;;;;;9.94;81.76;99152.61;101950;1299;76271;-24
2022/11/03 07:03:25;;;;;;;20.10;11.50;;;;;;;9.99;81.34;99153.06;102003;1300;75517;-24
2022/11/03 07:05:59;;;;;;;19.90;12.10;;;;;;;9.99;81.61;99161.42;102157;1301;75425;-24
2022/11/03 07:08:29;;;;;;;20.30;12.80;;;;;;;9.58;82.82;99157.96;102149;1300;62180;-24
2022/11/03 07:11:17;;;;;;;16.40;11.50;;;;;;;9.62;83.21;99166.13;102181;1295;62654;-24
2022/11/03 07:13:46;;;;;;;18.20;12.00;;;;;;;9.81;82.09;99162.49;102298;1299;76269;-24
2022/11/03 07:16:18;;;;;;;16.60;11.50;;;;;;;9.81;81.80;99165.73;102022;1301;76909;-24
2022/11/03 07:18:46;;;;;;;15.60;10.20;;;;;;;9.68;82.14;99161.38;102114;1302;75254;-24
2022/11/03 07:21:37;;;;;;;21.50;12.40;;;;;;;9.68;82.42;99167.42;102125;1301;62119;-25
2022/11/03 07:24:29;;;;;;;19.30;10.80;;;;;;;9.61;82.94;99167.58;102066;1293;61692;-24
2022/11/03 07:27:19;;;;;;;19.20;9.40;;;;;;;9.96;81.62;99177.26;102166;1298;76416;-24
2022/11/03 07:29:47;;;;;;;19.50;10.70;;;;;;;10.11;81.04;99182.70;102150;1302;76486;-24
2022/11/03 07:32:19;;;;;;;18.10;12.10;;;;;;;10.14;81.46;99177.25;102080;1294;74969;-24
2022/11/03 07:34:48;;;;;;;18.40;12.10;;;;;;;10.19;81.34;99171.83;102050;1298;63448;-24
2022/11/03 07:37:18;;;;;;;16.90;10.70;;;;;;;10.37;80.28;99170.61;102291;1298;61552;-23
2022/11/03 07:39:45;;;;;;;13.50;8.80;;;;;;;10.55;79.19;99174.08;102210;1297;76117;-24
2022/11/03 07:42:22;;;;;;;17.20;11.70;;;;;;;10.46;79.85;99166.17;102290;1301;76769;-24
2022/11/03 07:44:51;;;;;;;13.80;9.70;;;;;;;10.13;81.94;99172.86;102045;1302;75351;-24
2022/11/03 07:47:19;;;;;;;10.90;7.20;;;;;;;9.93;82.85;99178.17;102102;1299;61197;-25
2022/11/03 07:49:46;;;;;;;16.70;10.50;;;;;;;10.11;82.42;99172.15;102152;1299;62672;-25
2022/11/03 07:52:14;;;;;;;19.30;10.30;;;;;;;10.11;83.17;99176.97;102041;1295;76148;-25
2022/11/03 07:54:42;;;;;;;13.40;9.20;;;;;;;10.12;82.96;99176.02;102253;1302;76481;-24
2022/11/03 07:57:20;;;;;;;13.60;7.40;;;;;;;9.97;83.77;99170.92;102294;1298;74941;-24
2022/11/03 07:59:52;;;;;;;9.20;6.20;;;;;;;9.94;84.59;99176.52;102067;1302;63546;-25
2022/11/03 08:02:46;;;;;;;11.10;6.30;;;;;;;9.93;83.14;99170.89;102087;1293;62904;-25
2022/11/03 08:05:13;;;;;;;;;;;;;;;10.10;81.87;99184.69;102006;1295;76475;-25
2022/11/03 08:07:41;;;;;;;8.40;6.20;;;;;;;9.76;81.25;99172.00;102175;1301;75369;-25
2022/11/03 08:10:08;;;;;;;8.20;5.20;;;;;;;9.68;82.46;99175.36;102322;1299;75225;-24
2022/11/03 08:12:35;;;;;;;7.50;4.30;;;;;;;9.74;82.43;99180.31;102222;1296;61722;-25
2022/11/03 08:15:03;;;;;;;10.60;6.00;;;;;;;9.95;81.27;99169.05;102268;1302;62989;-25
2022/11/03 08:17:30;;;;;;;10.20;6.20;;;;;;;10.00;81.23;99179.17;102312;1301;76381;-25
2022/11/03 08:19:57;;;;;;;8.60;5.40;;;;;;;9.92;81.14;99177.89;102335;1292;75594;-24
2022/11/03 08:22:24;;;;;;;8.50;5.10;;;;;;;9.79;81.58;99180.08;102165;1299;73820;-24
2022/11/03 08:24:52;;;;;;;6.10;4.10;;;;;;;9.58;82.12;99168.67;102350;1285;62923;-24
2022/11/03 08:27:19;;;;;;;6.70;4.10;;;;;;;9.77;81.48;99172.66;102278;1298;62940;-25
2022/11/03 08:29:46;;;;;;;6.60;4.10;;;;;;;9.97;80.19;99175.62;102330;1299;75372;-25
2022/11/03 08:32:13;;;;;;;7.90;4.40;;;;;;;9.88;80.63;99183.43;102399;1297;75883;-24
2022/11/03 08:34:40;;;;;;;7.50;4.90;;;;;;;9.67;80.78;99170.96;102366;1299;75255;-24
2022/11/03 08:37:08;;;;;;;6.00;4.20;;;;;;;9.61;81.81;99183.52;102329;1293;62739;-27
2022/11/03 08:39:35;;;;;;;6.10;4.20;;;;;;;9.45;82.27;99178.98;101973;1302;62426;-26
2022/11/03 08:42:03;;;;;;;5.50;4.10;;;;;;;9.74;81.55;99184.62;102235;1299;75204;-25
2022/11/03 08:44:30;;;;;;;9.60;5.30;;;;;;;9.85;80.61;99183.15;102338;1302;76131;-25
2022/11/03 08:46:57;;;;;;;8.40;4.60;;;;;;;9.80;80.79;99192.70;102320;1300;74728;-25
2022/11/03 08:49:24;;;;;;;12.90;5.40;;;;;;;9.59;81.62;99191.29;102129;1301;61868;-27
2022/11/03 08:51:52;;;;;;;7.80;5.10;;;;;;;9.66;82.33;99197.73;102370;1299;62837;-25
2022/11/03 08:54:19;;;;;;;6.80;4.30;;;;;;;9.92;80.66;99184.65;102308;1298;76634;-25
2022/11/03 08:56:47;;;;;;;9.00;4.90;;;;;;;10.20;79.16;99185.29;102325;1291;76845;-25
2022/11/03 08:59:16;;;;;;;8.70;5.00;;;;;;;10.23;79.00;99185.23;102265;1292;75210;-23
2022/11/03 09:01:44;;;;;;;4.60;3.70;;;;;;;10.07;79.01;99187.67;102085;1299;61985;-26
2022/11/03 09:04:11;;;;;;;6.70;4.90;;;;;;;10.00;78.87;99188.02;102257;1299;63035;-25
2022/11/03 09:06:40;;;;;;;7.60;4.20;;;;;;;9.94;79.79;99192.32;102294;1293;76372;-25
2022/11/03 09:09:07;;;;;;;7.00;3.90;;;;;;;9.85;79.72;99198.05;102354;1298;76544;-25
2022/11/03 09:11:54;;;;;;;6.30;4.20;;;;;;;10.12;78.65;99188.48;102323;1300;74027;-25
2022/11/03 09:14:21;;;;;;;6.30;4.90;;;;;;;10.26;78.28;99190.74;102306;1302;61888;-25
2022/11/03 09:16:48;;;;;;;8.10;4.60;;;;;;;10.25;77.80;99187.75;102219;1302;62872;-25
2022/11/03 09:19:15;;;;;;;8.10;4.40;;;;;;;9.97;78.77;99186.55;102311;1299;75835;-24
2022/11/03 09:21:43;;;;;;;5.90;3.70;;;;;;;9.78;80.58;99191.84;102299;1302;76807;-25
2022/11/03 09:24:10;;;;;;;7.30;4.30;;;;;;;10.17;77.88;99178.92;102330;1292;75666;-25
2022/11/03 09:26:37;;;;;;;5.30;3.50;;;;;;;10.35;76.97;99183.30;102113;1298;62030;-25
2022/11/03 09:29:04;;;;;;;6.80;4.20;;;;;;;10.27;77.25;99179.06;102286;1294;61987;-25
2022/11/03 09:31:31;;;;;;;6.60;3.70;;;;;;;9.99;78.74;99181.32;102305;1299;76308;-24
2022/11/03 09:33:58;;;;;;;7.60;3.30;;;;;;;9.95;79.01;99182.91;102121;1294;77057;-25
2022/11/03 09:36:25;;;;;;;8.30;3.80;;;;;;;9.66;79.10;99176.36;102328;1299;75312;-25
2022/11/03 09:38:53;;;;;;;10.90;4.60;;;;;;;9.82;79.15;99186.33;102190;1299;61849;-25
2022/11/03 09:41:20;;;;;;;7.60;4.20;;;;;;;9.90;78.35;99179.99;102306;1299;62796;-25
2022/11/03 09:44:07;;;;;;;5.90;3.70;;;;;;;9.83;77.79;99176.99;102334;1296;75310;-25
2022/11/03 09:46:34;;;;;;;4.70;3.50;;;;;;;9.71;79.17;99169.58;102312;1294;76504;-25
2022/11/03 09:49:02;;;;;;;6.30;3.90;;;;;;;9.68;79.83;99172.60;102283;1292;75074;-24
2022/11/03 09:51:29;;;;;;;6.00;4.00;;;;;;;10.07;78.36;99174.70;102397;1291;61907;-25
2022/11/03 09:53:58;;;;;;;8.70;4.20;;;;;;;10.26;76.92;99173.20;102132;1301;62593;-25
2022/11/03 09:56:25;;;;;;;5.90;4.00;;;;;;;10.14;77.31;99172.40;102231;1299;76374;-25
2022/11/03 09:58:53;;;;;;;18.60;4.60;;;;;;;10.01;78.61;99180.17;102322;1291;75103;-25
2022/11/03 10:01:21;;;;;;;6.70;3.90;;;;;;;10.07;78.32;99167.23;102068;1295;74139;-23
2022/11/03 10:03:49;;;;;;;11.50;3.80;;;;;;;9.99;78.08;99166.97;102146;1301;64255;-23
2022/11/03 10:06:16;;;;;;;6.60;3.70;;;;;;;10.09;77.35;99168.23;102311;1294;62804;-23
2022/11/03 10:08:44;;;;;;;5.90;3.50;;;;;;;10.27;76.80;99166.54;102182;1301;76541;-23
2022/11/03 10:11:11;;;;;;;8.50;3.90;;;;;;;10.27;77.25;99162.05;102176;1288;77100;-23
2022/11/03 10:13:39;;;;;;;6.80;4.00;;;;;;;10.30;76.17;99165.64;102315;1299;74974;-23
2022/11/03 10:16:08;;;;;;;8.50;4.50;;;;;;;10.18;77.01;99170.20;102107;1300;62648;-24
2022/11/03 10:18:35;;;;;;;9.00;4.30;;;;;;;9.97;78.18;99162.23;102074;1305;62864;-25
2022/11/03 10:21:12;;;;;;;8.00;3.80;;;;;;;10.17;77.43;99166.48;102325;1292;76347;-25
2022/11/03 10:23:40;;;;;;;6.20;3.50;;;;;;;10.11;76.05;99160.18;101951;1300;76815;-23
2022/11/03 10:26:17;;;;;;;10.90;4.40;;;;;;;10.11;76.64;99165.90;102310;1299;74126;-24
2022/11/03 10:29:02;;;;;;;5.40;4.00;;;;;;;10.09;76.80;99164.80;102089;1297;62903;-23
2022/11/03 10:31:40;;;;;;;5.80;4.50;;;;;;;9.85;76.31;99156.40;102176;1304;62924;-24
2022/11/03 10:34:36;;;;;;;11.60;4.00;;;;;;;9.76;76.94;99153.96;102210;1295;76278;-26
2022/11/03 10:37:16;;;;;;;7.70;3.50;;;;;;;9.98;75.92;99152.33;102373;1298;75861;-25
2022/11/03 10:39:44;;;;;;;7.90;3.80;;;;;;;10.09;75.80;99166.51;102171;1302;74132;-23
2022/11/03 10:42:22;;;;;;;6.70;3.70;;;;;;;9.99;75.64;99161.03;102022;1299;61756;-23
2022/11/03 10:44:54;;;;;;;5.80;4.20;;;;;;;9.85;76.09;99161.08;102176;1302;63307;-25
2022/11/03 10:47:35;;;;;;;9.60;4.00;;;;;;;9.83;76.54;99158.14;102336;1292;76151;-23
2022/11/03 10:50:25;;;;;;;8.20;4.50;;;;;;;10.17;75.95;99158.10;102064;1295;76766;-23
2022/11/03 10:52:53;;;;;;;8.20;4.30;;;;;;;10.22;75.39;99164.70;102130;1296;75211;-23
2022/11/03 10:55:21;;;;;;;9.20;4.70;;;;;;;10.16;76.10;99168.81;102180;1294;61666;-23
2022/11/03 10:57:52;;;;;;;7.30;4.90;;;;;;;9.97;77.00;99169.85;102142;1285;61599;-22
2022/11/03 11:00:19;;;;;;;8.20;5.20;;;;;;;10.03;77.56;99165.29;102394;1294;75980;-24
2022/11/03 11:02:47;;;;;;;7.70;4.10;;;;;;;10.01;76.63;99158.84;102298;1299;75876;-24
2022/11/03 11:05:22;;;;;;;11.30;4.80;;;;;;;10.43;75.70;99160.31;102007;1301;73837;-24
2022/11/03 11:07:50;;;;;;;10.80;5.30;;;;;;;10.45;75.69;99156.32;101986;1300;62722;-25
2022/11/03 11:10:25;;;;;;;8.30;4.80;;;;;;;10.34;75.46;99152.70;102306;1298;61491;-24
2022/11/03 11:13:05;;;;;;;7.10;3.80;;;;;;;10.16;75.82;99155.77;102023;1304;75974;-24
2022/11/03 11:15:34;;;;;;;9.90;4.50;;;;;;;9.97;77.05;99158.65;102193;1295;74842;-24
2022/11/03 11:18:01;;;;;;;5.80;3.10;;;;;;;10.01;76.17;99155.02;102111;1293;73104;-24
2022/11/03 11:20:40;;;;;;;9.20;4.40;;;;;;;10.46;74.36;99156.63;102274;1291;62934;-24
2022/11/03 11:23:26;;;;;;;8.90;4.50;;;;;;;10.40;74.00;99152.54;102075;1296;61622;-24
2022/11/03 11:26:08;;;;;;;8.40;4.50;;;;;;;10.59;73.57;99151.41;102064;1301;76140;-24
2022/11/03 11:28:40;;;;;;;7.20;4.10;;;;;;;10.44;74.56;99152.42;102014;1301;76643;-24
2022/11/03 11:31:54;;;;;;;9.40;5.20;;;;;;;10.36;73.27;99137.21;102025;1294;75291;-24
2022/11/03 11:34:22;;;;;;;5.60;3.70;;;;;;;10.19;74.67;99158.32;102217;1302;62786;-24
2022/11/03 11:36:52;;;;;;;4.70;3.70;;;;;;;10.40;73.78;99141.44;102335;1294;62944;-24
2022/11/03 11:39:23;;;;;;;5.20;3.50;;;;;;;10.56;71.32;99141.74;102310;1298;75557;-24
2022/11/03 11:42:10;;;;;;;6.20;3.60;;;;;;;10.47;71.24;99136.70;102157;1301;76763;-24
2022/11/03 11:44:38;;;;;;;7.90;4.20;;;;;;;10.46;72.01;99141.48;102158;1301;74095;-24
2022/11/03 11:47:24;;;;;;;5.90;3.90;;;;;;;10.35;72.84;99141.67;102295;1291;62933;-24
2022/11/03 11:50:10;;;;;;;8.10;4.50;;;;;;;10.28;73.19;99139.71;102268;1294;62943;-24
2022/11/03 11:52:55;;;;;;;9.70;5.00;;;;;;;10.24;73.25;99134.01;102072;1286;74935;-25
2022/11/03 11:55:54;;;;;;;11.30;3.50;;;;;;;10.47;73.05;99124.78;101999;1297;77173;-25
2022/11/03 11:58:31;;;;;;;6.20;3.90;;;;;;;10.81;72.34;99136.47;102303;1297;75008;-28